createdAt,value
2023-02-14T00:01:12.212Z,36.97
2023-02-14T00:04:15.700Z,38.38
2023-02-14T00:07:18.311Z,34.53
2023-02-14T00:10:20.617Z,35.05
2023-02-14T00:13:22.845Z,37.33
2023-02-14T00:16:25.114Z,39.63
2023-02-14T00:19:28.344Z,36.65
2023-02-14T00:22:30.581Z,40.33
2023-02-14T00:25:34.591Z,39.65
2023-02-14T00:28:36.825Z,40.35
2023-02-14T00:31:39.473Z,38.30
2023-02-14T00:34:41.744Z,36.35
2023-02-14T00:37:48.726Z,37.58
2023-02-14T00:40:50.803Z,41.70
2023-02-14T00:43:53.830Z,38.15
2023-02-14T00:46:55.971Z,38.35
2023-02-14T00:50:03.066Z,37.58
2023-02-14T00:53:05.657Z,34.63
2023-02-14T00:56:08.311Z,37.70
2023-02-14T00:59:12.372Z,37.42
2023-02-14T01:02:17.304Z,35.78
2023-02-14T01:05:19.665Z,36.70
2023-02-14T01:08:22.131Z,38.83
2023-02-14T01:11:25.701Z,33.55
2023-02-14T01:14:28.598Z,38.63
2023-02-14T01:17:30.895Z,37.22
2023-02-14T01:20:33.528Z,34.65
2023-02-14T01:23:35.676Z,38.90
2023-02-14T01:26:37.970Z,35.45
2023-02-14T01:29:40.137Z,39.10
2023-02-14T01:32:42.682Z,33.83
2023-02-14T01:35:46.487Z,37.53
2023-02-14T01:38:56.125Z,35.38
2023-02-14T01:45:36.205Z,33.22
2023-02-14T01:48:38.393Z,37.33
2023-02-14T01:51:53.043Z,31.25
2023-02-14T01:55:09.483Z,34.05
2023-02-14T01:58:24.178Z,32.75
2023-02-14T02:01:26.950Z,35.03
2023-02-14T02:04:34.424Z,33.70
2023-02-14T02:07:36.942Z,36.63
2023-02-14T02:10:39.213Z,33.15
2023-02-14T02:13:41.469Z,32.72
2023-02-14T02:16:46.717Z,33.67
2023-02-14T02:20:27.183Z,33.20
2023-02-14T02:27:04.539Z,34.88
2023-02-14T02:30:40.314Z,34.60
2023-02-14T02:34:07.578Z,33.60
2023-02-14T02:37:28.372Z,34.08
2023-02-14T02:41:03.209Z,32.25
2023-02-14T02:44:39.969Z,34.38
2023-02-14T02:48:10.882Z,33.35
2023-02-14T02:51:39.743Z,34.45
2023-02-14T02:54:54.043Z,31.77
2023-02-14T02:57:57.191Z,32.42
2023-02-14T03:01:02.343Z,34.78
2023-02-14T03:04:30.091Z,37.70
2023-02-14T03:07:35.878Z,35.75
2023-02-14T03:10:42.500Z,36.33
2023-02-14T03:13:58.594Z,36.33
2023-02-14T03:17:19.400Z,37.58
2023-02-14T03:20:30.458Z,40.83
2023-02-14T03:23:43.924Z,36.53
2023-02-14T03:26:54.803Z,36.40
2023-02-14T03:30:36.820Z,39.38
2023-02-14T03:33:57.340Z,38.17
2023-02-14T03:37:03.355Z,41.40
2023-02-14T03:40:15.818Z,37.17
2023-02-14T03:43:31.989Z,39.50
2023-02-14T03:46:55.117Z,40.03
2023-02-14T03:50:06.329Z,41.70
2023-02-14T03:53:13.984Z,42.20
2023-02-14T03:56:26.118Z,39.75
2023-02-14T03:59:29.475Z,45.35
2023-02-14T04:02:54.994Z,40.22
2023-02-14T04:05:57.231Z,41.38
2023-02-14T04:08:59.472Z,43.55
2023-02-14T04:12:01.619Z,42.00
2023-02-14T04:15:04.856Z,43.30
2023-02-14T04:18:25.597Z,38.88
2023-02-14T04:21:27.901Z,43.95
2023-02-14T04:24:30.070Z,40.92
2023-02-14T04:27:32.189Z,45.33
2023-02-14T04:30:34.556Z,45.78
2023-02-14T04:33:37.095Z,43.55
2023-02-14T04:36:39.355Z,43.33
2023-02-14T04:39:41.592Z,41.90
2023-02-14T04:42:45.097Z,39.60
2023-02-14T04:45:47.869Z,42.95
2023-02-14T04:48:50.003Z,44.70
2023-02-14T04:51:52.265Z,47.75
2023-02-14T04:54:54.534Z,46.75
2023-02-14T04:57:56.798Z,44.20
2023-02-14T05:00:59.250Z,46.35
2023-02-14T05:04:01.798Z,45.10
2023-02-14T05:07:04.553Z,51.20
2023-02-14T05:10:07.264Z,45.45
2023-02-14T05:13:09.724Z,45.80
2023-02-14T05:16:11.983Z,46.63
2023-02-14T05:19:17.060Z,42.95
2023-02-14T05:22:19.332Z,43.35
2023-02-14T05:25:21.605Z,42.10
2023-02-14T05:28:23.856Z,48.53
2023-02-14T05:31:26.164Z,42.10
2023-02-14T05:34:28.460Z,41.95
2023-02-14T05:37:30.707Z,44.25
2023-02-14T05:40:33.756Z,44.22
2023-02-14T05:43:35.906Z,35.67
2023-02-14T05:46:38.111Z,43.70
2023-02-14T05:49:40.281Z,44.97
2023-02-14T05:52:42.511Z,46.33
2023-02-14T05:55:44.723Z,47.47
2023-02-14T05:58:47.008Z,44.45
2023-02-14T06:01:49.232Z,47.35
2023-02-14T06:04:51.838Z,44.10
2023-02-14T06:07:54.180Z,45.45
2023-02-14T06:10:56.303Z,46.35
2023-02-14T06:13:58.437Z,48.40
2023-02-14T06:17:00.739Z,44.35
2023-02-14T06:20:03.168Z,43.78
2023-02-14T06:23:05.370Z,51.38
2023-02-14T06:26:07.708Z,47.13
2023-02-14T06:29:09.934Z,44.83
2023-02-14T06:32:12.246Z,47.47
2023-02-14T06:35:15.579Z,48.65
2023-02-14T06:38:17.798Z,46.22
2023-02-14T06:41:20.025Z,44.85
2023-02-14T06:44:22.285Z,44.55
2023-02-14T06:47:24.423Z,50.60
2023-02-14T06:50:26.596Z,43.33
2023-02-14T06:53:29.378Z,41.97
2023-02-14T06:56:31.634Z,46.50
2023-02-14T06:59:33.790Z,41.78
2023-02-14T07:02:36.173Z,46.92
2023-02-14T07:05:38.498Z,43.30
2023-02-14T07:08:40.774Z,46.88
2023-02-14T07:11:43.347Z,45.53
2023-02-14T07:14:45.552Z,48.42
2023-02-14T07:17:47.770Z,47.75
2023-02-14T07:20:51.232Z,46.08
2023-02-14T07:23:53.521Z,43.60
2023-02-14T07:26:55.835Z,45.55
2023-02-14T07:29:58.154Z,43.53
2023-02-14T07:33:00.402Z,42.70
2023-02-14T07:36:08.481Z,48.80
2023-02-14T07:39:11.029Z,46.15
2023-02-14T07:42:13.347Z,45.42
2023-02-14T07:45:21.742Z,41.65
2023-02-14T07:48:25.437Z,43.40
2023-02-14T07:51:27.713Z,42.90
2023-02-14T07:54:30.064Z,45.67
2023-02-14T07:57:32.332Z,42.67
2023-02-14T08:00:34.548Z,44.08
2023-02-14T08:03:36.841Z,43.60
2023-02-14T08:06:39.086Z,43.97
2023-02-14T08:09:41.321Z,46.05
2023-02-14T08:13:01.718Z,49.00
2023-02-14T08:16:11.883Z,40.58
2023-02-14T08:19:14.178Z,40.00
2023-02-14T08:22:18.320Z,42.13
2023-02-14T08:25:20.495Z,42.50
2023-02-14T08:28:23.288Z,41.50
2023-02-14T08:31:35.074Z,46.63
2023-02-14T08:34:38.425Z,41.05
2023-02-14T08:37:40.624Z,40.10
2023-02-14T08:40:43.093Z,44.05
2023-02-14T08:43:45.585Z,40.90
2023-02-14T08:46:47.923Z,39.17
2023-02-14T08:49:50.543Z,45.58
2023-02-14T08:52:52.692Z,37.22
2023-02-14T08:55:54.857Z,41.90
2023-02-14T08:58:57.055Z,45.00
2023-02-14T09:01:59.420Z,43.38
2023-02-14T09:05:01.747Z,42.17
2023-02-14T09:08:04.361Z,46.97
2023-02-14T09:11:22.340Z,44.17
2023-02-14T09:14:24.882Z,46.70
2023-02-14T09:17:27.238Z,45.22
2023-02-14T09:20:29.478Z,44.22
2023-02-14T09:23:31.652Z,38.33
2023-02-14T09:26:36.988Z,44.13
2023-02-14T09:29:39.197Z,37.97
2023-02-14T09:32:41.446Z,40.78
2023-02-14T09:35:43.699Z,41.38
2023-02-14T09:38:46.151Z,44.50
2023-02-14T09:41:51.358Z,40.70
2023-02-14T09:45:11.844Z,41.40
2023-02-14T09:48:31.014Z,42.42
2023-02-14T09:51:33.250Z,38.88
2023-02-14T09:54:36.111Z,38.50
2023-02-14T09:58:10.015Z,41.03
2023-02-14T10:01:36.742Z,41.78
2023-02-14T10:04:58.710Z,41.40
2023-02-14T10:08:29.852Z,41.78
2023-02-14T10:11:32.329Z,40.38
2023-02-14T10:14:40.865Z,40.42
2023-02-14T10:17:49.678Z,41.83
2023-02-14T10:20:59.087Z,39.55
2023-02-14T10:24:34.100Z,41.60
2023-02-14T10:27:42.522Z,38.17
2023-02-14T10:31:04.459Z,39.95
2023-02-14T10:34:12.599Z,39.45
2023-02-14T10:37:41.806Z,43.03
2023-02-14T10:41:25.476Z,41.13
2023-02-14T10:44:59.436Z,42.70
2023-02-14T10:48:36.460Z,43.40
2023-02-14T10:51:50.457Z,42.85
2023-02-14T10:54:59.748Z,46.15
2023-02-14T10:58:04.366Z,45.83
2023-02-14T11:01:18.295Z,38.78
2023-02-14T11:04:24.042Z,41.13
2023-02-14T11:07:26.323Z,44.58
2023-02-14T11:10:34.285Z,45.20
2023-02-14T11:13:38.714Z,48.20
2023-02-14T11:16:40.981Z,45.00
2023-02-14T11:20:02.203Z,44.88
2023-02-14T11:23:19.329Z,45.58
2023-02-14T11:26:30.095Z,45.20
2023-02-14T11:29:38.983Z,43.25
2023-02-14T11:32:41.374Z,54.83
2023-02-14T11:35:51.682Z,53.55
2023-02-14T11:42:38.674Z,54.33
2023-02-14T11:45:43.982Z,53.65
2023-02-14T11:49:07.427Z,55.72
2023-02-14T11:52:15.988Z,55.88
2023-02-14T11:55:36.469Z,57.97
2023-02-14T11:59:03.133Z,52.50
2023-02-14T12:02:14.443Z,58.03
2023-02-14T12:05:43.660Z,57.85
2023-02-14T12:08:47.080Z,59.30
2023-02-14T12:12:00.541Z,61.42
2023-02-14T12:15:24.129Z,58.78
2023-02-14T12:18:49.369Z,58.70
2023-02-14T12:22:01.326Z,58.83
2023-02-14T12:25:15.883Z,58.60
2023-02-14T12:28:41.786Z,58.63
2023-02-14T12:31:46.662Z,57.75
2023-02-14T12:34:49.574Z,58.28
2023-02-14T12:38:03.959Z,60.53
2023-02-14T12:41:38.782Z,61.33
2023-02-14T12:44:52.729Z,53.88
2023-02-14T12:48:33.386Z,55.97
2023-02-14T12:51:41.399Z,62.22
2023-02-14T12:54:50.199Z,54.95
2023-02-14T12:58:50.838Z,57.67
2023-02-14T13:02:18.128Z,55.75
2023-02-14T13:05:47.915Z,58.83
2023-02-14T13:09:18.901Z,53.63
2023-02-14T13:12:48.296Z,58.85
2023-02-14T13:16:11.912Z,56.50
2023-02-14T13:19:20.073Z,52.85
2023-02-14T13:22:25.208Z,51.05
2023-02-14T13:25:37.257Z,55.15
2023-02-14T13:28:41.753Z,53.78
2023-02-14T13:31:44.833Z,51.92
2023-02-14T13:34:48.569Z,54.33
2023-02-14T13:37:55.310Z,55.85
2023-02-14T13:41:00.347Z,58.30
2023-02-14T13:44:05.451Z,54.83
2023-02-14T13:47:16.178Z,51.83
2023-02-14T13:50:21.654Z,50.17
2023-02-14T13:53:40.866Z,47.63
2023-02-14T13:56:43.065Z,48.33
2023-02-14T13:59:45.262Z,52.30
2023-02-14T14:02:52.683Z,51.08
2023-02-14T14:06:03.638Z,51.42
2023-02-14T14:09:10.841Z,53.25
2023-02-14T14:12:28.442Z,50.22
2023-02-14T14:15:30.531Z,53.78
2023-02-14T14:18:42.392Z,46.90
2023-02-14T14:21:59.597Z,50.58
2023-02-14T14:25:09.286Z,48.78
2023-02-14T14:28:23.125Z,46.85
2023-02-14T14:31:25.314Z,51.40
2023-02-14T14:34:28.647Z,48.55
2023-02-14T14:37:54.654Z,50.65
2023-02-14T14:40:57.846Z,50.88
2023-02-14T14:44:00.408Z,46.65
2023-02-14T14:47:03.276Z,50.55
2023-02-14T14:50:10.282Z,51.28
2023-02-14T14:53:23.187Z,52.47
2023-02-14T14:56:48.720Z,53.22
2023-02-14T15:00:04.542Z,53.88
2023-02-14T15:03:12.513Z,49.40
2023-02-14T15:06:20.997Z,48.05
2023-02-14T15:09:33.813Z,51.72
2023-02-14T15:12:54.985Z,49.95
2023-02-14T15:15:57.767Z,51.83
2023-02-14T15:19:07.388Z,55.65
2023-02-14T15:22:19.756Z,50.70
2023-02-14T15:25:38.388Z,52.20
2023-02-14T15:28:40.525Z,52.92
2023-02-14T15:31:42.833Z,53.88
2023-02-14T15:34:45.204Z,45.50
2023-02-14T15:37:47.820Z,47.90
2023-02-14T15:40:50.593Z,48.67
2023-02-14T15:43:55.831Z,49.15
2023-02-14T15:47:02.199Z,54.60
2023-02-14T15:50:09.940Z,52.22
2023-02-14T15:53:27.016Z,49.25
2023-02-14T15:56:36.054Z,51.30
2023-02-14T15:59:42.390Z,46.60
2023-02-14T16:02:48.072Z,49.47
2023-02-14T16:05:51.325Z,52.42
2023-02-14T16:08:57.122Z,47.75
2023-02-14T16:11:59.383Z,47.25
2023-02-14T16:15:21.503Z,55.72
2023-02-14T16:18:38.978Z,57.40
2023-02-14T16:21:55.976Z,57.08
2023-02-14T16:25:01.841Z,55.45
2023-02-14T16:28:04.248Z,50.05
2023-02-14T16:31:11.059Z,54.17
2023-02-14T16:34:16.092Z,54.92
2023-02-14T16:37:24.623Z,56.78
2023-02-14T16:40:27.912Z,59.53
2023-02-14T16:43:30.064Z,54.22
2023-02-14T16:46:35.445Z,49.65
2023-02-14T16:49:37.635Z,58.40
2023-02-14T16:52:41.100Z,53.67
2023-02-14T16:55:43.269Z,54.53
2023-02-14T16:58:45.919Z,57.72
2023-02-14T17:01:49.005Z,57.05
2023-02-14T17:04:51.215Z,59.15
2023-02-14T17:07:53.397Z,55.50
2023-02-14T17:10:57.373Z,50.25
2023-02-14T17:13:59.901Z,61.53
2023-02-14T17:17:02.122Z,66.40
2023-02-14T17:20:08.267Z,64.40
2023-02-14T17:23:10.438Z,57.47
2023-02-14T17:26:12.650Z,57.30
2023-02-14T17:29:14.734Z,61.88
2023-02-14T17:32:17.027Z,56.35
2023-02-14T17:35:19.490Z,61.53
2023-02-14T17:38:22.347Z,59.78
2023-02-14T17:41:26.402Z,58.80
2023-02-14T17:44:32.465Z,59.33
2023-02-14T17:47:34.804Z,51.80
2023-02-14T17:50:36.954Z,60.88
2023-02-14T17:53:41.489Z,60.47
2023-02-14T17:56:43.662Z,55.08
2023-02-14T17:59:47.292Z,54.65
2023-02-14T18:02:56.170Z,57.95
2023-02-14T18:05:59.153Z,54.03
2023-02-14T18:09:05.793Z,52.45
2023-02-14T18:12:09.386Z,51.85
2023-02-14T18:15:14.824Z,49.90
2023-02-14T18:18:17.392Z,50.60
2023-02-14T18:21:21.837Z,49.60
2023-02-14T18:24:24.167Z,49.88
2023-02-14T18:27:26.681Z,51.22
2023-02-14T18:30:28.861Z,55.28
2023-02-14T18:33:31.068Z,47.75
2023-02-14T18:36:36.599Z,51.88
2023-02-14T18:39:38.807Z,52.88
2023-02-14T18:42:40.893Z,50.50
2023-02-14T18:45:43.102Z,49.70
2023-02-14T18:48:45.588Z,58.17
2023-02-14T18:51:49.046Z,54.95
2023-02-14T18:54:51.125Z,50.17
2023-02-14T18:57:53.327Z,52.15
2023-02-14T19:00:56.699Z,48.95
2023-02-14T19:04:00.505Z,47.47
2023-02-14T19:07:04.535Z,53.90
2023-02-14T19:10:07.410Z,53.97
2023-02-14T19:13:09.562Z,51.03
2023-02-14T19:16:14.150Z,48.65
2023-02-14T19:19:16.937Z,55.75
2023-02-14T19:22:19.753Z,52.25
2023-02-14T19:25:21.899Z,60.35
2023-02-14T19:28:24.128Z,49.40
2023-02-14T19:31:27.886Z,54.63
2023-02-14T19:34:32.069Z,59.33
2023-02-14T19:37:34.188Z,57.25
2023-02-14T19:40:36.333Z,61.30
2023-02-14T19:43:39.849Z,50.03
2023-02-14T19:46:43.215Z,62.38
2023-02-14T19:49:45.346Z,64.80
2023-02-14T19:52:50.161Z,59.58
2023-02-14T19:55:52.751Z,56.03
2023-02-14T19:58:58.193Z,64.93
2023-02-14T20:02:00.694Z,59.35
2023-02-14T20:05:04.453Z,69.72
2023-02-14T20:08:07.154Z,62.60
2023-02-14T20:11:24.931Z,67.22
2023-02-14T20:14:30.542Z,73.78
2023-02-14T20:17:33.716Z,70.80
2023-02-14T20:20:55.752Z,58.67
2023-02-14T20:24:01.049Z,62.88
2023-02-14T20:27:03.202Z,63.60
2023-02-14T20:30:07.108Z,71.38
2023-02-14T20:33:09.318Z,62.60
2023-02-14T20:36:12.111Z,64.20
2023-02-14T20:39:14.608Z,64.03
2023-02-14T20:42:17.476Z,73.10
2023-02-14T20:45:20.018Z,65.53
2023-02-14T20:48:22.401Z,57.25
2023-02-14T20:51:25.009Z,70.53
2023-02-14T20:54:28.650Z,68.55
2023-02-14T20:57:31.050Z,71.63
2023-02-14T21:00:34.851Z,63.72
2023-02-14T21:03:38.900Z,69.72
2023-02-14T21:06:41.867Z,64.30
2023-02-14T21:09:45.584Z,64.40
2023-02-14T21:12:49.257Z,69.45
2023-02-14T21:15:52.527Z,66.40
2023-02-14T21:19:00.833Z,70.25
2023-02-14T21:22:03.566Z,71.93
2023-02-14T21:25:07.757Z,71.40
2023-02-14T21:28:10.152Z,69.60
2023-02-14T21:31:14.135Z,68.53
2023-02-14T21:34:17.141Z,68.57
2023-02-14T21:37:19.395Z,68.55
2023-02-14T21:40:23.675Z,71.70
2023-02-14T21:43:25.847Z,73.60
2023-02-14T21:46:33.463Z,63.90
2023-02-14T21:49:54.439Z,69.82
2023-02-14T21:52:56.581Z,62.45
2023-02-14T21:56:11.824Z,72.38
2023-02-14T21:59:14.233Z,71.72
2023-02-14T22:02:16.461Z,67.63
2023-02-14T22:05:19.930Z,71.05
2023-02-14T22:08:22.788Z,58.83
2023-02-14T22:11:28.192Z,68.90
2023-02-14T22:14:30.552Z,66.68
2023-02-14T22:17:33.738Z,73.20
2023-02-14T22:20:36.043Z,64.43
2023-02-14T22:23:38.896Z,62.38
2023-02-14T22:26:41.384Z,65.25
2023-02-14T22:29:43.792Z,70.53
2023-02-14T22:32:46.274Z,74.97
2023-02-14T22:35:48.582Z,61.45
2023-02-14T22:38:51.018Z,69.07
2023-02-14T22:41:53.245Z,68.57
2023-02-14T22:44:55.437Z,69.40
2023-02-14T22:47:57.618Z,72.72
2023-02-14T22:51:08.223Z,68.40
2023-02-14T22:54:13.685Z,69.85
2023-02-14T22:57:15.973Z,80.03
2023-02-14T23:00:18.248Z,69.75
2023-02-14T23:03:20.478Z,63.55
2023-02-14T23:06:24.279Z,70.47
2023-02-14T23:09:26.541Z,71.00
2023-02-14T23:12:46.954Z,68.68
2023-02-14T23:16:11.683Z,70.07
2023-02-14T23:19:34.940Z,77.15
2023-02-14T23:22:39.625Z,69.55
2023-02-14T23:25:44.767Z,67.25
2023-02-14T23:28:46.915Z,66.60
2023-02-14T23:31:49.285Z,65.65
2023-02-14T23:34:51.480Z,71.28
2023-02-14T23:37:54.412Z,70.18
2023-02-14T23:41:15.272Z,69.95
2023-02-14T23:44:19.887Z,66.40
2023-02-14T23:47:22.273Z,71.38
2023-02-14T23:50:24.569Z,69.15
2023-02-14T23:53:27.133Z,67.47
2023-02-14T23:56:29.518Z,60.53
2023-02-14T23:59:31.758Z,72.97
